Los Chavez, New Mexico
Current Conditions -  °F | °C
As of 5:15 AM on Friday 19 Dec 2014 (Local Time) from KE80 Reporting Station
Clear Clear  
Wind Chill: -8°   Ceiling: Unl
Heat Index: -4°   Visibility: 10mi
Dew Point: -5°   Wind: 6mph
Humidity: 96%   Direction: 30°NNE
Pressure: 30.18"   Gusts: NA
Location:  34.5756°N, 106.588°W
Report Text: KE80 191215Z AUTO 03005KT 10SM CLR M04/M05 A3018 RMK AO2 T10441050
Loading
Personal Weather Stations






























Interactive Weather Map New forecast layout! Learn more

10-Day Weather Forecast

Advertisements
Track Severe Weather on mobile